Terminal Aerodrome Forecast
Issued by NWS Northern Indiana

Home | Current Version | Previous Version | Text Only | Print | Product List | Glossary On
Versions: 1 2 3 4 5 6 7 8 9 10 11 12 13 14 15 16 17
000
FTUS43 KIWX 160500
TAFFWA
TAF
KFWA 160520Z 1606/1706 VRB03KT P6SM SKC
     FM161200 15007KT P6SM FEW250
     FM161500 15012G20KT P6SM SCT150=

USA.gov is the U.S. government's official web portal to all federal, state and local government web resources and services.